sensor_id;sensor_type;location;lat;lon;timestamp;pressure;altitude;pressure_sealevel;temperature;humidity
72798;BME280;61084;55.816;37.036;2022-11-15T00:00:35;100184.88;;;1.27;54.82
72798;BME280;61084;55.816;37.036;2022-11-15T00:03:28;100197.78;;;1.28;54.94
72798;BME280;61084;55.816;37.036;2022-11-15T00:06:12;100196.06;;;1.29;55.30
72798;BME280;61084;55.816;37.036;2022-11-15T00:08:59;100194.34;;;1.26;54.94
72798;BME280;61084;55.816;37.036;2022-11-15T00:11:44;100188.34;;;1.21;54.87
72798;BME280;61084;55.816;37.036;2022-11-15T00:14:28;100180.59;;;1.23;54.88
72798;BME280;61084;55.816;37.036;2022-11-15T00:17:12;100176.25;;;1.26;55.06
72798;BME280;61084;55.816;37.036;2022-11-15T00:19:56;100171.09;;;1.29;54.97
72798;BME280;61084;55.816;37.036;2022-11-15T00:22:40;100162.47;;;1.29;54.57
72798;BME280;61084;55.816;37.036;2022-11-15T00:25:25;100149.56;;;1.21;53.61
72798;BME280;61084;55.816;37.036;2022-11-15T00:28:11;100148.72;;;1.21;54.68
72798;BME280;61084;55.816;37.036;2022-11-15T00:31:06;100156.44;;;1.25;54.45
72798;BME280;61084;55.816;37.036;2022-11-15T00:33:51;100161.63;;;1.22;54.39
72798;BME280;61084;55.816;37.036;2022-11-15T00:36:36;100159.03;;;1.18;53.30
72798;BME280;61084;55.816;37.036;2022-11-15T00:39:20;100161.66;;;1.16;54.45
72798;BME280;61084;55.816;37.036;2022-11-15T00:42:04;100155.63;;;1.13;54.49
72798;BME280;61084;55.816;37.036;2022-11-15T00:44:49;100169.41;;;1.15;54.25
72798;BME280;61084;55.816;37.036;2022-11-15T00:47:33;100153.06;;;1.10;54.80
72798;BME280;61084;55.816;37.036;2022-11-15T00:50:18;100146.19;;;1.06;53.96
72798;BME280;61084;55.816;37.036;2022-11-15T00:53:02;100147.06;;;0.99;55.07
72798;BME280;61084;55.816;37.036;2022-11-15T00:55:46;100150.50;;;1.02;55.07
72798;BME280;61084;55.816;37.036;2022-11-15T00:58:31;100131.50;;;1.05;54.70
72798;BME280;61084;55.816;37.036;2022-11-15T01:01:15;100126.34;;;1.09;55.19
72798;BME280;61084;55.816;37.036;2022-11-15T01:04:00;100124.59;;;1.11;55.28
72798;BME280;61084;55.816;37.036;2022-11-15T01:06:44;100122.88;;;1.15;55.21
72798;BME280;61084;55.816;37.036;2022-11-15T01:09:28;100122.03;;;1.17;55.21
72798;BME280;61084;55.816;37.036;2022-11-15T01:12:13;100111.69;;;1.17;55.26
72798;BME280;61084;55.816;37.036;2022-11-15T01:14:57;100114.28;;;1.13;55.11
72798;BME280;61084;55.816;37.036;2022-11-15T01:17:42;100115.97;;;1.14;55.34
72798;BME280;61084;55.816;37.036;2022-11-15T01:20:26;100116.00;;;1.12;54.74
72798;BME280;61084;55.816;37.036;2022-11-15T01:23:10;100112.56;;;1.09;54.65
72798;BME280;61084;55.816;37.036;2022-11-15T01:25:59;100104.81;;;1.09;54.65
72798;BME280;61084;55.816;37.036;2022-11-15T01:28:44;100109.97;;;1.10;54.60
72798;BME280;61084;55.816;37.036;2022-11-15T01:31:28;100112.56;;;1.07;55.13
72798;BME280;61084;55.816;37.036;2022-11-15T01:34:12;100113.44;;;1.03;54.85
72798;BME280;61084;55.816;37.036;2022-11-15T01:36:57;100110.84;;;1.03;55.32
72798;BME280;61084;55.816;37.036;2022-11-15T01:39:43;100115.19;;;1.00;54.61
72798;BME280;61084;55.816;37.036;2022-11-15T01:42:28;100117.78;;;0.97;54.36
72798;BME280;61084;55.816;37.036;2022-11-15T01:45:16;100110.00;;;0.98;54.77
72798;BME280;61084;55.816;37.036;2022-11-15T01:48:00;100110.88;;;0.99;54.73
72798;BME280;61084;55.816;37.036;2022-11-15T01:50:45;100109.16;;;0.99;55.03
72798;BME280;61084;55.816;37.036;2022-11-15T01:53:29;100104.84;;;0.98;55.31
72798;BME280;61084;55.816;37.036;2022-11-15T01:56:18;100102.25;;;0.98;55.06
72798;BME280;61084;55.816;37.036;2022-11-15T01:59:05;100098.81;;;0.98;54.55
72798;BME280;61084;55.816;37.036;2022-11-15T02:01:51;100092.78;;;0.99;54.42
72798;BME280;61084;55.816;37.036;2022-11-15T02:04:41;100103.16;;;0.96;54.84
72798;BME280;61084;55.816;37.036;2022-11-15T02:07:26;100097.09;;;0.97;55.19
72798;BME280;61084;55.816;37.036;2022-11-15T02:10:14;100093.66;;;0.95;55.07
72798;BME280;61084;55.816;37.036;2022-11-15T02:12:59;100097.09;;;0.94;54.54
72798;BME280;61084;55.816;37.036;2022-11-15T02:15:58;100085.03;;;0.94;54.92
72798;BME280;61084;55.816;37.036;2022-11-15T02:22:16;100077.28;;;0.97;55.49
72798;BME280;61084;55.816;37.036;2022-11-15T02:35:37;100091.94;;;1.00;55.15
72798;BME280;61084;55.816;37.036;2022-11-15T02:43:51;100079.88;;;0.96;54.81
72798;BME280;61084;55.816;37.036;2022-11-15T02:46:46;100069.53;;;0.99;55.40
72798;BME280;61084;55.816;37.036;2022-11-15T02:49:52;100054.88;;;0.96;54.97
72798;BME280;61084;55.816;37.036;2022-11-15T02:52:38;100048.00;;;1.00;55.56
72798;BME280;61084;55.816;37.036;2022-11-15T02:55:43;100047.13;;;1.01;55.33
72798;BME280;61084;55.816;37.036;2022-11-15T03:04:41;100040.22;;;1.04;55.58
72798;BME280;61084;55.816;37.036;2022-11-15T03:07:34;100042.81;;;1.04;55.58
72798;BME280;61084;55.816;37.036;2022-11-15T03:13:33;100028.16;;;1.00;55.46
72798;BME280;61084;55.816;37.036;2022-11-15T03:16:38;100023.88;;;0.99;55.46
72798;BME280;61084;55.816;37.036;2022-11-15T03:22:20;100021.28;;;0.96;55.00
72798;BME280;61084;55.816;37.036;2022-11-15T03:25:08;100018.72;;;0.95;55.26
72798;BME280;61084;55.816;37.036;2022-11-15T03:27:57;100018.72;;;0.95;55.23
72798;BME280;61084;55.816;37.036;2022-11-15T03:30:46;100015.28;;;0.93;55.22
72798;BME280;61084;55.816;37.036;2022-11-15T03:33:31;100016.13;;;0.95;55.38
72798;BME280;61084;55.816;37.036;2022-11-15T03:36:16;100014.41;;;0.94;55.88
72798;BME280;61084;55.816;37.036;2022-11-15T03:39:06;100016.97;;;0.97;55.75
72798;BME280;61084;55.816;37.036;2022-11-15T03:47:34;100002.31;;;0.99;55.46
72798;BME280;61084;55.816;37.036;2022-11-15T03:50:21;99999.72;;;1.00;55.75
72798;BME280;61084;55.816;37.036;2022-11-15T03:53:06;100004.03;;;0.98;55.87
72798;BME280;61084;55.816;37.036;2022-11-15T03:55:50;100010.97;;;0.95;55.50
72798;BME280;61084;55.816;37.036;2022-11-15T03:58:35;100012.72;;;0.85;54.96
72798;BME280;61084;55.816;37.036;2022-11-15T04:01:19;100011.03;;;0.84;55.22
72798;BME280;61084;55.816;37.036;2022-11-15T04:04:03;100007.59;;;0.79;55.13
72798;BME280;61084;55.816;37.036;2022-11-15T04:06:48;100008.47;;;0.78;55.11
72798;BME280;61084;55.816;37.036;2022-11-15T04:09:32;100011.88;;;0.78;54.72
72798;BME280;61084;55.816;37.036;2022-11-15T04:12:16;100019.66;;;0.77;54.74
72798;BME280;61084;55.816;37.036;2022-11-15T04:15:17;100017.94;;;0.77;54.58
72798;BME280;61084;55.816;37.036;2022-11-15T04:18:02;100017.06;;;0.82;54.99
72798;BME280;61084;55.816;37.036;2022-11-15T04:20:46;100009.28;;;0.83;54.76
72798;BME280;61084;55.816;37.036;2022-11-15T04:23:49;100005.84;;;0.84;55.05
72798;BME280;61084;55.816;37.036;2022-11-15T04:26:37;99996.38;;;0.85;54.96
72798;BME280;61084;55.816;37.036;2022-11-15T04:29:21;99992.06;;;0.85;55.42
72798;BME280;61084;55.816;37.036;2022-11-15T04:32:21;99990.34;;;0.86;54.97
72798;BME280;61084;55.816;37.036;2022-11-15T04:35:05;99989.47;;;0.81;55.27
72798;BME280;61084;55.816;37.036;2022-11-15T04:37:50;99991.22;;;0.82;55.29
72798;BME280;61084;55.816;37.036;2022-11-15T04:40:36;99991.19;;;0.83;55.28
72798;BME280;61084;55.816;37.036;2022-11-15T04:43:20;99986.91;;;0.87;55.78
72798;BME280;61084;55.816;37.036;2022-11-15T04:46:05;99985.16;;;0.86;55.55
72798;BME280;61084;55.816;37.036;2022-11-15T04:48:49;99979.16;;;0.84;55.40
72798;BME280;61084;55.816;37.036;2022-11-15T04:51:34;99982.59;;;0.86;55.43
72798;BME280;61084;55.816;37.036;2022-11-15T04:54:18;99975.72;;;0.85;55.90
72798;BME280;61084;55.816;37.036;2022-11-15T04:57:02;99976.56;;;0.87;55.29
72798;BME280;61084;55.816;37.036;2022-11-15T04:59:47;99967.97;;;0.85;55.54
72798;BME280;61084;55.816;37.036;2022-11-15T05:02:31;99960.19;;;0.86;55.51
72798;BME280;61084;55.816;37.036;2022-11-15T05:05:34;99967.06;;;0.89;55.44
72798;BME280;61084;55.816;37.036;2022-11-15T05:08:18;99962.75;;;0.88;55.62
72798;BME280;61084;55.816;37.036;2022-11-15T05:11:03;99966.19;;;0.90;55.96
72798;BME280;61084;55.816;37.036;2022-11-15T05:13:47;99973.94;;;0.90;56.14
72798;BME280;61084;55.816;37.036;2022-11-15T05:16:32;99962.78;;;0.89;55.83
72798;BME280;61084;55.816;37.036;2022-11-15T05:19:16;99961.03;;;0.91;55.76
72798;BME280;61084;55.816;37.036;2022-11-15T05:22:01;99952.41;;;0.95;56.44
72798;BME280;61084;55.816;37.036;2022-11-15T05:24:45;99959.28;;;0.98;56.48
72798;BME280;61084;55.816;37.036;2022-11-15T05:27:29;99954.97;;;0.97;56.76
72798;BME280;61084;55.816;37.036;2022-11-15T05:30:15;99961.00;;;0.97;56.78
72798;BME280;61084;55.816;37.036;2022-11-15T05:33:00;99961.03;;;0.96;56.62
72798;BME280;61084;55.816;37.036;2022-11-15T05:35:51;99962.72;;;0.97;56.53
72798;BME280;61084;55.816;37.036;2022-11-15T05:38:38;99961.88;;;0.98;56.31
72798;BME280;61084;55.816;37.036;2022-11-15T05:41:29;99960.16;;;0.95;56.63
72798;BME280;61084;55.816;37.036;2022-11-15T05:44:18;99958.41;;;0.97;56.35
72798;BME280;61084;55.816;37.036;2022-11-15T05:47:05;99954.94;;;0.98;56.24
72798;BME280;61084;55.816;37.036;2022-11-15T05:49:53;99950.63;;;1.00;56.36
72798;BME280;61084;55.816;37.036;2022-11-15T05:52:37;99964.41;;;1.01;55.99
72798;BME280;61084;55.816;37.036;2022-11-15T05:55:22;99956.69;;;0.99;55.67
72798;BME280;61084;55.816;37.036;2022-11-15T05:58:07;99951.50;;;0.99;56.04
72798;BME280;61084;55.816;37.036;2022-11-15T06:00:52;99953.22;;;1.03;56.19
72798;BME280;61084;55.816;37.036;2022-11-15T06:03:37;99954.94;;;1.04;55.93
72798;BME280;61084;55.816;37.036;2022-11-15T06:06:22;99954.94;;;1.04;55.73
72798;BME280;61084;55.816;37.036;2022-11-15T06:09:06;99947.16;;;1.06;55.76
72798;BME280;61084;55.816;37.036;2022-11-15T06:11:50;99942.00;;;1.06;56.03
72798;BME280;61084;55.816;37.036;2022-11-15T06:14:34;99940.25;;;1.05;55.89
72798;BME280;61084;55.816;37.036;2022-11-15T06:17:19;99927.34;;;1.06;55.48
72798;BME280;61084;55.816;37.036;2022-11-15T06:20:03;99924.78;;;1.06;55.83
72798;BME280;61084;55.816;37.036;2022-11-15T06:22:48;99923.91;;;1.09;55.86
72798;BME280;61084;55.816;37.036;2022-11-15T06:25:32;99926.41;;;1.13;55.48
72798;BME280;61084;55.816;37.036;2022-11-15T06:28:16;99918.72;;;1.10;55.38
72798;BME280;61084;55.816;37.036;2022-11-15T06:31:05;99915.22;;;1.11;55.75
72798;BME280;61084;55.816;37.036;2022-11-15T06:33:49;99913.50;;;1.13;55.54
72798;BME280;61084;55.816;37.036;2022-11-15T06:36:35;99907.50;;;1.13;55.40
72798;BME280;61084;55.816;37.036;2022-11-15T06:39:20;99907.44;;;1.16;55.17
72798;BME280;61084;55.816;37.036;2022-11-15T06:42:04;99901.41;;;1.18;55.26
72798;BME280;61084;55.816;37.036;2022-11-15T06:44:48;99893.63;;;1.23;55.51
72798;BME280;61084;55.816;37.036;2022-11-15T06:47:33;99896.16;;;1.27;55.59
72798;BME280;61084;55.816;37.036;2022-11-15T06:50:17;99895.28;;;1.28;55.35
72798;BME280;61084;55.816;37.036;2022-11-15T06:53:03;99891.84;;;1.32;55.46
72798;BME280;61084;55.816;37.036;2022-11-15T06:55:48;99896.16;;;1.30;55.66
72798;BME280;61084;55.816;37.036;2022-11-15T06:58:32;99897.00;;;1.29;55.44
72798;BME280;61084;55.816;37.036;2022-11-15T07:01:17;99896.16;;;1.29;55.26
72798;BME280;61084;55.816;37.036;2022-11-15T07:04:01;99895.34;;;1.21;54.98
72798;BME280;61084;55.816;37.036;2022-11-15T07:06:48;99881.59;;;1.16;54.93
72798;BME280;61084;55.816;37.036;2022-11-15T07:09:33;99889.31;;;1.22;55.43
72798;BME280;61084;55.816;37.036;2022-11-15T07:12:17;99878.94;;;1.26;55.56
72798;BME280;61084;55.816;37.036;2022-11-15T07:15:01;99876.28;;;1.34;56.09
72798;BME280;61084;55.816;37.036;2022-11-15T07:17:45;99871.09;;;1.37;56.20
72798;BME280;61084;55.816;37.036;2022-11-15T07:20:30;99873.63;;;1.41;55.93
72798;BME280;61084;55.816;37.036;2022-11-15T07:23:14;99863.34;;;1.37;55.38
72798;BME280;61084;55.816;37.036;2022-11-15T07:25:59;99856.44;;;1.36;54.89
72798;BME280;61084;55.816;37.036;2022-11-15T07:28:43;99860.69;;;1.41;55.14
72798;BME280;61084;55.816;37.036;2022-11-15T07:31:27;99857.22;;;1.44;55.53
72798;BME280;61084;55.816;37.036;2022-11-15T07:34:12;99842.59;;;1.43;54.92
72798;BME280;61084;55.816;37.036;2022-11-15T07:36:56;99839.13;;;1.45;55.29
72798;BME280;61084;55.816;37.036;2022-11-15T07:39:40;99841.69;;;1.50;55.47
72798;BME280;61084;55.816;37.036;2022-11-15T07:42:25;99835.59;;;1.52;55.16
72798;BME280;61084;55.816;37.036;2022-11-15T07:45:28;99841.63;;;1.56;55.28
72798;BME280;61084;55.816;37.036;2022-11-15T07:48:13;99839.00;;;1.58;54.48
72798;BME280;61084;55.816;37.036;2022-11-15T07:50:57;99837.31;;;1.57;54.81
72798;BME280;61084;55.816;37.036;2022-11-15T07:53:42;99833.81;;;1.59;55.05
72798;BME280;61084;55.816;37.036;2022-11-15T07:56:27;99824.28;;;1.64;55.42
72798;BME280;61084;55.816;37.036;2022-11-15T07:59:11;99816.44;;;1.70;55.04
72798;BME280;61084;55.816;37.036;2022-11-15T08:01:56;99809.47;;;1.77;55.08
72798;BME280;61084;55.816;37.036;2022-11-15T08:04:40;99818.06;;;1.79;55.29
72798;BME280;61084;55.816;37.036;2022-11-15T08:07:24;99812.94;;;1.77;54.80
72798;BME280;61084;55.816;37.036;2022-11-15T08:10:09;99805.13;;;1.80;54.92
72798;BME280;61084;55.816;37.036;2022-11-15T08:13:07;99813.63;;;1.90;55.13
72798;BME280;61084;55.816;37.036;2022-11-15T08:15:52;99811.84;;;1.96;55.14
72798;BME280;61084;55.816;37.036;2022-11-15T08:18:41;99812.69;;;1.97;54.76
72798;BME280;61084;55.816;37.036;2022-11-15T08:21:25;99810.13;;;1.95;54.64
72798;BME280;61084;55.816;37.036;2022-11-15T08:24:10;99810.13;;;1.95;54.45
72798;BME280;61084;55.816;37.036;2022-11-15T08:26:54;99798.88;;;1.99;54.87
72798;BME280;61084;55.816;37.036;2022-11-15T08:29:39;99794.47;;;2.06;55.08
72798;BME280;61084;55.816;37.036;2022-11-15T08:32:23;99800.47;;;2.11;54.42
72798;BME280;61084;55.816;37.036;2022-11-15T08:35:08;99801.34;;;2.08;54.29
72798;BME280;61084;55.816;37.036;2022-11-15T08:37:53;99806.56;;;2.05;54.26
72798;BME280;61084;55.816;37.036;2022-11-15T08:40:38;99796.16;;;2.08;54.55
72798;BME280;61084;55.816;37.036;2022-11-15T08:43:22;99795.31;;;2.08;54.84
72798;BME280;61084;55.816;37.036;2022-11-15T08:46:12;99790.16;;;2.06;54.58
72798;BME280;61084;55.816;37.036;2022-11-15T08:48:57;99788.34;;;2.11;54.48
72798;BME280;61084;55.816;37.036;2022-11-15T08:51:42;99788.34;;;2.13;54.90
72798;BME280;61084;55.816;37.036;2022-11-15T08:54:26;99786.56;;;2.16;54.61
72798;BME280;61084;55.816;37.036;2022-11-15T08:57:10;99788.28;;;2.16;54.83
72798;BME280;61084;55.816;37.036;2022-11-15T08:59:55;99778.81;;;2.16;54.45
72798;BME280;61084;55.816;37.036;2022-11-15T09:02:39;99782.25;;;2.15;54.08
72798;BME280;61084;55.816;37.036;2022-11-15T09:05:24;99783.13;;;2.16;54.40
72798;BME280;61084;55.816;37.036;2022-11-15T09:08:08;99771.91;;;2.17;55.19
72798;BME280;61084;55.816;37.036;2022-11-15T09:10:53;99770.19;;;2.14;54.19
72798;BME280;61084;55.816;37.036;2022-11-15T09:13:37;99767.59;;;2.14;55.22
72798;BME280;61084;55.816;37.036;2022-11-15T09:16:22;99764.13;;;2.15;54.48
72798;BME280;61084;55.816;37.036;2022-11-15T09:19:07;99770.16;;;2.16;54.27
72798;BME280;61084;55.816;37.036;2022-11-15T09:21:51;99766.69;;;2.18;54.04
72798;BME280;61084;55.816;37.036;2022-11-15T09:24:35;99753.78;;;2.15;54.32
72798;BME280;61084;55.816;37.036;2022-11-15T09:27:19;99759.75;;;2.20;54.76
72798;BME280;61084;55.816;37.036;2022-11-15T09:30:04;99755.34;;;2.27;55.26
72798;BME280;61084;55.816;37.036;2022-11-15T09:32:49;99748.44;;;2.27;54.79
72798;BME280;61084;55.816;37.036;2022-11-15T09:35:33;99732.84;;;2.30;54.50
72798;BME280;61084;55.816;37.036;2022-11-15T09:38:18;99738.88;;;2.31;54.99
72798;BME280;61084;55.816;37.036;2022-11-15T09:44:59;99750.97;;;2.30;54.88
72798;BME280;61084;55.816;37.036;2022-11-15T09:50:50;99735.47;;;2.29;54.48
72798;BME280;61084;55.816;37.036;2022-11-15T09:53:32;99724.31;;;2.25;54.18
72798;BME280;61084;55.816;37.036;2022-11-15T09:56:03;99716.50;;;2.27;54.49
72798;BME280;61084;55.816;37.036;2022-11-15T09:58:37;99720.81;;;2.28;54.70
72798;BME280;61084;55.816;37.036;2022-11-15T10:01:16;99719.06;;;2.30;54.69
72798;BME280;61084;55.816;37.036;2022-11-15T10:03:43;99719.88;;;2.32;54.19
72798;BME280;61084;55.816;37.036;2022-11-15T10:06:23;99725.00;;;2.35;54.75
72798;BME280;61084;55.816;37.036;2022-11-15T10:09:04;99723.25;;;2.39;54.80
72798;BME280;61084;55.816;37.036;2022-11-15T10:11:35;99714.56;;;2.40;54.65
72798;BME280;61084;55.816;37.036;2022-11-15T10:14:08;99717.19;;;2.38;54.43
72798;BME280;61084;55.816;37.036;2022-11-15T10:24:46;99697.34;;;2.39;54.37
72798;BME280;61084;55.816;37.036;2022-11-15T10:27:16;99693.97;;;2.34;54.61
72798;BME280;61084;55.816;37.036;2022-11-15T10:29:50;99693.06;;;2.36;55.14
72798;BME280;61084;55.816;37.036;2022-11-15T10:32:18;99682.69;;;2.36;54.59
72798;BME280;61084;55.816;37.036;2022-11-15T10:34:44;99679.22;;;2.37;54.73
72798;BME280;61084;55.816;37.036;2022-11-15T10:37:10;99675.88;;;2.32;54.65
72798;BME280;61084;55.816;37.036;2022-11-15T10:39:36;99681.97;;;2.28;54.75
72798;BME280;61084;55.816;37.036;2022-11-15T10:42:27;99672.41;;;2.32;54.67
72798;BME280;61084;55.816;37.036;2022-11-15T10:44:53;99664.59;;;2.35;55.75
72798;BME280;61084;55.816;37.036;2022-11-15T10:47:30;99668.03;;;2.35;55.44
72798;BME280;61084;55.816;37.036;2022-11-15T10:52:23;99670.69;;;2.32;55.93
72798;BME280;61084;55.816;37.036;2022-11-15T10:57:30;99665.53;;;2.29;56.57
72798;BME280;61084;55.816;37.036;2022-11-15T11:00:00;99663.78;;;2.31;56.64
72798;BME280;61084;55.816;37.036;2022-11-15T11:05:34;99658.66;;;2.28;57.36
72798;BME280;61084;55.816;37.036;2022-11-15T11:08:18;99659.53;;;2.27;56.83
72798;BME280;61084;55.816;37.036;2022-11-15T11:11:00;99651.00;;;2.20;57.29
72798;BME280;61084;55.816;37.036;2022-11-15T11:13:32;99654.53;;;2.16;57.48
72798;BME280;61084;55.816;37.036;2022-11-15T11:21:10;99642.53;;;2.09;58.21
72798;BME280;61084;55.816;37.036;2022-11-15T11:29:02;99638.25;;;2.07;58.97
72798;BME280;61084;55.816;37.036;2022-11-15T11:43:40;99621.31;;;1.88;60.20
72798;BME280;61084;55.816;37.036;2022-11-15T11:48:43;99614.34;;;1.93;60.65
72798;BME280;61084;55.816;37.036;2022-11-15T11:53:47;99609.09;;;1.96;60.72
72798;BME280;61084;55.816;37.036;2022-11-15T11:56:28;99602.25;;;1.92;60.53
72798;BME280;61084;55.816;37.036;2022-11-15T11:59:05;99603.16;;;1.91;60.62
72798;BME280;61084;55.816;37.036;2022-11-15T12:01:41;99595.38;;;1.91;61.27
72798;BME280;61084;55.816;37.036;2022-11-15T12:12:32;99587.63;;;1.89;61.28
72798;BME280;61084;55.816;37.036;2022-11-15T12:15:04;99586.78;;;1.89;61.26
72798;BME280;61084;55.816;37.036;2022-11-15T12:17:35;99584.22;;;1.87;61.59
72798;BME280;61084;55.816;37.036;2022-11-15T12:20:04;99575.66;;;1.84;61.81
72798;BME280;61084;55.816;37.036;2022-11-15T12:25:13;99571.34;;;1.84;61.74
72798;BME280;61084;55.816;37.036;2022-11-15T12:27:47;99563.59;;;1.81;61.43
72798;BME280;61084;55.816;37.036;2022-11-15T12:30:17;99559.31;;;1.80;61.55
72798;BME280;61084;55.816;37.036;2022-11-15T12:32:57;99555.06;;;1.78;61.79
72798;BME280;61084;55.816;37.036;2022-11-15T12:37:57;99546.41;;;1.80;62.01
72798;BME280;61084;55.816;37.036;2022-11-15T12:40:33;99542.97;;;1.78;61.74
72798;BME280;61084;55.816;37.036;2022-11-15T12:45:33;99530.94;;;1.74;61.80
72798;BME280;61084;55.816;37.036;2022-11-15T12:58:45;99515.72;;;1.56;62.07
72798;BME280;61084;55.816;37.036;2022-11-15T13:12:09;99508.97;;;1.46;62.65
72798;BME280;61084;55.816;37.036;2022-11-15T13:14:54;99505.59;;;1.39;62.61
72798;BME280;61084;55.816;37.036;2022-11-15T13:22:40;99490.22;;;1.32;63.07
72798;BME280;61084;55.816;37.036;2022-11-15T13:27:57;99486.88;;;1.25;63.06
72798;BME280;61084;55.816;37.036;2022-11-15T13:30:28;99484.31;;;1.24;62.61
72798;BME280;61084;55.816;37.036;2022-11-15T13:32:55;99482.56;;;1.24;63.43
72798;BME280;61084;55.816;37.036;2022-11-15T13:35:27;99479.13;;;1.25;63.57
72798;BME280;61084;55.816;37.036;2022-11-15T13:37:55;99479.22;;;1.18;63.56
72798;BME280;61084;55.816;37.036;2022-11-15T13:40:25;99477.47;;;1.20;63.05
72798;BME280;61084;55.816;37.036;2022-11-15T13:42:53;99475.75;;;1.19;63.34
72798;BME280;61084;55.816;37.036;2022-11-15T13:45:19;99471.53;;;1.15;63.78
72798;BME280;61084;55.816;37.036;2022-11-15T13:47:51;99466.34;;;1.15;63.82
72798;BME280;61084;55.816;37.036;2022-11-15T13:50:19;99466.34;;;1.13;63.86
72798;BME280;61084;55.816;37.036;2022-11-15T13:52:46;99466.34;;;1.13;64.04
72798;BME280;61084;55.816;37.036;2022-11-15T13:55:20;99460.31;;;1.14;63.58
72798;BME280;61084;55.816;37.036;2022-11-15T13:58:01;99455.97;;;1.16;64.17
72798;BME280;61084;55.816;37.036;2022-11-15T14:00:40;99456.03;;;1.12;64.03
72798;BME280;61084;55.816;37.036;2022-11-15T14:03:19;99450.09;;;1.05;63.72
72798;BME280;61084;55.816;37.036;2022-11-15T14:08:32;99442.41;;;1.02;63.76
72798;BME280;61084;55.816;37.036;2022-11-15T14:11:17;99446.75;;;0.99;63.66
72798;BME280;61084;55.816;37.036;2022-11-15T14:19:04;99446.78;;;0.97;64.28
72798;BME280;61084;55.816;37.036;2022-11-15T14:21:31;99441.59;;;0.99;64.76
72798;BME280;61084;55.816;37.036;2022-11-15T14:24:19;99432.22;;;0.93;64.51
72798;BME280;61084;55.816;37.036;2022-11-15T14:26:45;99429.63;;;0.93;64.68
72798;BME280;61084;55.816;37.036;2022-11-15T14:29:40;99422.72;;;0.92;64.76
72798;BME280;61084;55.816;37.036;2022-11-15T14:34:42;99423.69;;;0.87;64.57
72798;BME280;61084;55.816;37.036;2022-11-15T14:37:28;99421.94;;;0.87;64.78
72798;BME280;61084;55.816;37.036;2022-11-15T14:39:56;99428.78;;;0.91;64.23
72798;BME280;61084;55.816;37.036;2022-11-15T14:42:23;99426.19;;;0.93;64.71
72798;BME280;61084;55.816;37.036;2022-11-15T14:44:50;99423.56;;;0.96;64.93
72798;BME280;61084;55.816;37.036;2022-11-15T14:47:16;99420.13;;;0.94;64.74
72798;BME280;61084;55.816;37.036;2022-11-15T14:49:43;99418.47;;;0.91;64.70
72798;BME280;61084;55.816;37.036;2022-11-15T14:52:29;99415.88;;;0.91;64.41
72798;BME280;61084;55.816;37.036;2022-11-15T14:54:56;99409.94;;;0.83;64.54
72798;BME280;61084;55.816;37.036;2022-11-15T14:57:23;99413.34;;;0.85;64.47
72798;BME280;61084;55.816;37.036;2022-11-15T14:59:49;99408.28;;;0.79;64.36
72798;BME280;61084;55.816;37.036;2022-11-15T15:02:20;99401.41;;;0.76;64.78
72798;BME280;61084;55.816;37.036;2022-11-15T15:04:47;99408.31;;;0.77;64.54
72798;BME280;61084;55.816;37.036;2022-11-15T15:07:13;99396.47;;;0.63;63.79
72798;BME280;61084;55.816;37.036;2022-11-15T15:09:39;99400.72;;;0.67;64.60
72798;BME280;61084;55.816;37.036;2022-11-15T15:12:20;99398.97;;;0.69;65.14
72798;BME280;61084;55.816;37.036;2022-11-15T15:14:47;99390.31;;;0.70;65.00
72798;BME280;61084;55.816;37.036;2022-11-15T15:17:14;99381.75;;;0.69;65.13
72798;BME280;61084;55.816;37.036;2022-11-15T15:19:40;99375.72;;;0.67;65.05
72798;BME280;61084;55.816;37.036;2022-11-15T15:22:06;99377.44;;;0.68;65.44
72798;BME280;61084;55.816;37.036;2022-11-15T15:24:32;99375.66;;;0.73;65.15
72798;BME280;61084;55.816;37.036;2022-11-15T15:26:58;99373.03;;;0.75;64.93
72798;BME280;61084;55.816;37.036;2022-11-15T15:29:23;99361.00;;;0.72;65.43
72798;BME280;61084;55.816;37.036;2022-11-15T15:31:49;99359.25;;;0.74;65.43
72798;BME280;61084;55.816;37.036;2022-11-15T15:34:15;99360.09;;;0.76;65.60
72798;BME280;61084;55.816;37.036;2022-11-15T15:36:41;99367.00;;;0.74;65.12
72798;BME280;61084;55.816;37.036;2022-11-15T15:39:09;99353.22;;;0.74;65.98
72798;BME280;61084;55.816;37.036;2022-11-15T15:41:35;99353.28;;;0.72;65.87
72798;BME280;61084;55.816;37.036;2022-11-15T15:44:01;99350.66;;;0.75;65.67
72798;BME280;61084;55.816;37.036;2022-11-15T15:46:27;99354.09;;;0.76;65.64
72798;BME280;61084;55.816;37.036;2022-11-15T15:48:53;99340.31;;;0.75;65.34
72798;BME280;61084;55.816;37.036;2022-11-15T15:51:18;99342.94;;;0.72;65.35
72798;BME280;61084;55.816;37.036;2022-11-15T15:53:44;99340.31;;;0.74;65.39
72798;BME280;61084;55.816;37.036;2022-11-15T15:56:10;99338.63;;;0.73;65.72
72798;BME280;61084;55.816;37.036;2022-11-15T15:58:36;99349.00;;;0.71;65.74
72798;BME280;61084;55.816;37.036;2022-11-15T16:01:01;99341.19;;;0.74;65.98
72798;BME280;61084;55.816;37.036;2022-11-15T16:03:27;99333.41;;;0.77;65.76
72798;BME280;61084;55.816;37.036;2022-11-15T16:05:53;99341.13;;;0.79;65.93
72798;BME280;61084;55.816;37.036;2022-11-15T16:08:23;99339.41;;;0.80;66.26
72798;BME280;61084;55.816;37.036;2022-11-15T16:10:49;99334.22;;;0.80;66.05
72798;BME280;61084;55.816;37.036;2022-11-15T16:13:16;99330.78;;;0.79;66.28
72798;BME280;61084;55.816;37.036;2022-11-15T16:15:43;99323.94;;;0.76;65.93
72798;BME280;61084;55.816;37.036;2022-11-15T16:18:15;99318.75;;;0.76;66.19
72798;BME280;61084;55.816;37.036;2022-11-15T16:20:46;99321.38;;;0.75;65.93
72798;BME280;61084;55.816;37.036;2022-11-15T16:23:16;99314.50;;;0.74;65.94
72798;BME280;61084;55.816;37.036;2022-11-15T16:25:51;99317.06;;;0.75;65.83
72798;BME280;61084;55.816;37.036;2022-11-15T16:30:45;99312.00;;;0.69;65.91
72798;BME280;61084;55.816;37.036;2022-11-15T16:33:11;99312.91;;;0.67;65.55